sensor_id;sensor_type;location;lat;lon;timestamp;P1;durP1;ratioP1;P2;durP2;ratioP2
19026;SDS011;9646;52.034;5.554;2022-12-01T00:01:31;19.35;;;12.30;;
19026;SDS011;9646;52.034;5.554;2022-12-01T00:03:59;16.98;;;11.15;;
19026;SDS011;9646;52.034;5.554;2022-12-01T00:06:26;16.23;;;10.70;;
19026;SDS011;9646;52.034;5.554;2022-12-01T00:08:53;18.52;;;11.77;;
19026;SDS011;9646;52.034;5.554;2022-12-01T00:11:38;16.83;;;11.35;;
19026;SDS011;9646;52.034;5.554;2022-12-01T00:14:05;18.58;;;11.63;;
19026;SDS011;9646;52.034;5.554;2022-12-01T00:16:32;21.27;;;14.00;;
19026;SDS011;9646;52.034;5.554;2022-12-01T00:19:01;19.13;;;11.95;;
19026;SDS011;9646;52.034;5.554;2022-12-01T00:21:28;19.73;;;12.65;;
19026;SDS011;9646;52.034;5.554;2022-12-01T00:23:55;21.27;;;13.27;;
19026;SDS011;9646;52.034;5.554;2022-12-01T00:26:23;19.05;;;12.38;;
19026;SDS011;9646;52.034;5.554;2022-12-01T00:28:51;18.35;;;12.18;;
19026;SDS011;9646;52.034;5.554;2022-12-01T00:31:18;24.33;;;13.38;;
19026;SDS011;9646;52.034;5.554;2022-12-01T00:33:46;23.40;;;14.32;;
19026;SDS011;9646;52.034;5.554;2022-12-01T00:36:14;18.95;;;12.13;;
19026;SDS011;9646;52.034;5.554;2022-12-01T00:38:41;19.05;;;12.65;;
19026;SDS011;9646;52.034;5.554;2022-12-01T00:41:08;18.35;;;11.43;;
19026;SDS011;9646;52.034;5.554;2022-12-01T00:43:35;22.75;;;13.65;;
19026;SDS011;9646;52.034;5.554;2022-12-01T00:46:03;17.73;;;11.75;;
19026;SDS011;9646;52.034;5.554;2022-12-01T00:48:30;18.95;;;11.77;;
19026;SDS011;9646;52.034;5.554;2022-12-01T00:50:58;18.83;;;12.23;;
19026;SDS011;9646;52.034;5.554;2022-12-01T00:53:26;22.50;;;13.77;;
19026;SDS011;9646;52.034;5.554;2022-12-01T00:55:53;21.23;;;12.73;;
19026;SDS011;9646;52.034;5.554;2022-12-01T00:58:20;19.20;;;11.80;;
19026;SDS011;9646;52.034;5.554;2022-12-01T01:00:47;21.75;;;14.35;;
19026;SDS011;9646;52.034;5.554;2022-12-01T01:03:15;20.95;;;12.80;;
19026;SDS011;9646;52.034;5.554;2022-12-01T01:05:42;18.55;;;11.93;;
19026;SDS011;9646;52.034;5.554;2022-12-01T01:08:10;20.33;;;12.35;;
19026;SDS011;9646;52.034;5.554;2022-12-01T01:10:40;16.50;;;10.63;;
19026;SDS011;9646;52.034;5.554;2022-12-01T01:13:08;17.85;;;11.63;;
19026;SDS011;9646;52.034;5.554;2022-12-01T01:15:35;21.08;;;13.32;;
19026;SDS011;9646;52.034;5.554;2022-12-01T01:18:03;22.92;;;14.38;;
19026;SDS011;9646;52.034;5.554;2022-12-01T01:20:30;18.50;;;11.85;;
19026;SDS011;9646;52.034;5.554;2022-12-01T01:22:57;19.33;;;12.20;;
19026;SDS011;9646;52.034;5.554;2022-12-01T01:25:24;18.45;;;11.63;;
19026;SDS011;9646;52.034;5.554;2022-12-01T01:27:52;22.05;;;12.70;;
19026;SDS011;9646;52.034;5.554;2022-12-01T01:30:20;16.83;;;10.85;;
19026;SDS011;9646;52.034;5.554;2022-12-01T01:32:47;20.35;;;13.02;;
19026;SDS011;9646;52.034;5.554;2022-12-01T01:35:14;23.55;;;15.07;;
19026;SDS011;9646;52.034;5.554;2022-12-01T01:37:41;22.13;;;14.15;;
19026;SDS011;9646;52.034;5.554;2022-12-01T01:40:08;19.67;;;13.15;;
19026;SDS011;9646;52.034;5.554;2022-12-01T01:42:36;23.98;;;14.88;;
19026;SDS011;9646;52.034;5.554;2022-12-01T01:45:10;21.38;;;12.82;;
19026;SDS011;9646;52.034;5.554;2022-12-01T01:47:42;19.27;;;12.45;;
19026;SDS011;9646;52.034;5.554;2022-12-01T01:50:10;18.02;;;12.60;;
19026;SDS011;9646;52.034;5.554;2022-12-01T01:52:39;19.45;;;12.40;;
19026;SDS011;9646;52.034;5.554;2022-12-01T01:55:08;26.23;;;15.57;;
19026;SDS011;9646;52.034;5.554;2022-12-01T01:57:36;18.83;;;12.13;;
19026;SDS011;9646;52.034;5.554;2022-12-01T02:00:06;17.77;;;11.98;;
19026;SDS011;9646;52.034;5.554;2022-12-01T02:02:34;21.55;;;14.52;;
19026;SDS011;9646;52.034;5.554;2022-12-01T02:05:04;22.55;;;12.68;;
19026;SDS011;9646;52.034;5.554;2022-12-01T02:07:35;18.75;;;11.95;;
19026;SDS011;9646;52.034;5.554;2022-12-01T02:10:03;18.23;;;11.43;;
19026;SDS011;9646;52.034;5.554;2022-12-01T02:12:36;19.63;;;12.70;;
19026;SDS011;9646;52.034;5.554;2022-12-01T02:15:10;19.55;;;12.35;;
19026;SDS011;9646;52.034;5.554;2022-12-01T02:17:41;19.83;;;11.90;;
19026;SDS011;9646;52.034;5.554;2022-12-01T02:20:20;20.52;;;12.65;;
19026;SDS011;9646;52.034;5.554;2022-12-01T02:22:52;17.38;;;12.43;;
19026;SDS011;9646;52.034;5.554;2022-12-01T02:25:28;19.20;;;11.60;;
19026;SDS011;9646;52.034;5.554;2022-12-01T02:30:46;20.85;;;12.98;;
19026;SDS011;9646;52.034;5.554;2022-12-01T02:33:15;22.90;;;13.48;;
19026;SDS011;9646;52.034;5.554;2022-12-01T02:35:45;20.05;;;11.18;;
19026;SDS011;9646;52.034;5.554;2022-12-01T02:38:16;21.48;;;12.63;;
19026;SDS011;9646;52.034;5.554;2022-12-01T02:40:46;20.25;;;12.63;;
19026;SDS011;9646;52.034;5.554;2022-12-01T02:43:16;21.67;;;13.32;;
19026;SDS011;9646;52.034;5.554;2022-12-01T02:45:47;26.30;;;14.95;;
19026;SDS011;9646;52.034;5.554;2022-12-01T02:48:17;27.85;;;14.27;;
19026;SDS011;9646;52.034;5.554;2022-12-01T02:50:46;24.20;;;14.82;;
19026;SDS011;9646;52.034;5.554;2022-12-01T02:53:14;28.00;;;15.40;;
19026;SDS011;9646;52.034;5.554;2022-12-01T02:55:46;22.40;;;13.23;;
19026;SDS011;9646;52.034;5.554;2022-12-01T02:58:13;23.00;;;13.90;;
19026;SDS011;9646;52.034;5.554;2022-12-01T03:00:41;22.77;;;13.98;;
19026;SDS011;9646;52.034;5.554;2022-12-01T03:06:09;23.33;;;13.05;;
19026;SDS011;9646;52.034;5.554;2022-12-01T03:08:41;22.55;;;13.13;;
19026;SDS011;9646;52.034;5.554;2022-12-01T03:11:10;27.20;;;15.68;;
19026;SDS011;9646;52.034;5.554;2022-12-01T03:13:52;28.60;;;16.10;;
19026;SDS011;9646;52.034;5.554;2022-12-01T03:16:23;19.42;;;12.38;;
19026;SDS011;9646;52.034;5.554;2022-12-01T03:18:52;21.48;;;12.85;;
19026;SDS011;9646;52.034;5.554;2022-12-01T03:21:23;22.95;;;14.02;;
19026;SDS011;9646;52.034;5.554;2022-12-01T03:23:52;29.08;;;15.23;;
19026;SDS011;9646;52.034;5.554;2022-12-01T03:26:21;23.55;;;13.30;;
19026;SDS011;9646;52.034;5.554;2022-12-01T03:28:50;26.23;;;14.48;;
19026;SDS011;9646;52.034;5.554;2022-12-01T03:31:18;23.50;;;14.52;;
19026;SDS011;9646;52.034;5.554;2022-12-01T03:33:47;30.98;;;17.17;;
19026;SDS011;9646;52.034;5.554;2022-12-01T03:36:16;23.10;;;13.45;;
19026;SDS011;9646;52.034;5.554;2022-12-01T03:38:47;23.77;;;14.02;;
19026;SDS011;9646;52.034;5.554;2022-12-01T03:41:18;31.13;;;17.48;;
19026;SDS011;9646;52.034;5.554;2022-12-01T03:43:47;23.33;;;14.35;;
19026;SDS011;9646;52.034;5.554;2022-12-01T03:46:16;25.75;;;15.77;;
19026;SDS011;9646;52.034;5.554;2022-12-01T03:48:44;27.58;;;15.75;;
19026;SDS011;9646;52.034;5.554;2022-12-01T03:51:12;22.58;;;13.23;;
19026;SDS011;9646;52.034;5.554;2022-12-01T03:53:45;25.58;;;14.07;;
19026;SDS011;9646;52.034;5.554;2022-12-01T03:56:14;25.23;;;15.00;;
19026;SDS011;9646;52.034;5.554;2022-12-01T03:58:44;22.15;;;13.32;;
19026;SDS011;9646;52.034;5.554;2022-12-01T04:01:11;19.15;;;12.35;;
19026;SDS011;9646;52.034;5.554;2022-12-01T04:03:39;22.30;;;13.80;;
19026;SDS011;9646;52.034;5.554;2022-12-01T04:06:06;21.40;;;13.88;;
19026;SDS011;9646;52.034;5.554;2022-12-01T04:08:33;22.45;;;12.68;;
19026;SDS011;9646;52.034;5.554;2022-12-01T04:11:01;21.40;;;11.73;;
19026;SDS011;9646;52.034;5.554;2022-12-01T04:13:50;22.25;;;12.63;;
19026;SDS011;9646;52.034;5.554;2022-12-01T04:16:16;20.75;;;12.80;;
19026;SDS011;9646;52.034;5.554;2022-12-01T04:18:43;23.30;;;13.50;;
19026;SDS011;9646;52.034;5.554;2022-12-01T04:21:10;20.65;;;12.02;;
19026;SDS011;9646;52.034;5.554;2022-12-01T04:23:37;17.27;;;11.40;;
19026;SDS011;9646;52.034;5.554;2022-12-01T04:26:22;22.90;;;13.85;;
19026;SDS011;9646;52.034;5.554;2022-12-01T04:28:50;20.17;;;11.50;;
19026;SDS011;9646;52.034;5.554;2022-12-01T04:31:17;18.05;;;11.20;;
19026;SDS011;9646;52.034;5.554;2022-12-01T04:33:44;20.08;;;11.82;;
19026;SDS011;9646;52.034;5.554;2022-12-01T04:36:11;19.95;;;11.90;;
19026;SDS011;9646;52.034;5.554;2022-12-01T04:38:38;21.73;;;12.45;;
19026;SDS011;9646;52.034;5.554;2022-12-01T04:41:09;17.13;;;10.10;;
19026;SDS011;9646;52.034;5.554;2022-12-01T04:43:36;19.92;;;12.93;;
19026;SDS011;9646;52.034;5.554;2022-12-01T04:46:05;23.48;;;13.20;;
19026;SDS011;9646;52.034;5.554;2022-12-01T04:48:32;18.17;;;11.88;;
19026;SDS011;9646;52.034;5.554;2022-12-01T04:51:00;20.75;;;12.07;;
19026;SDS011;9646;52.034;5.554;2022-12-01T04:53:27;20.05;;;11.80;;
19026;SDS011;9646;52.034;5.554;2022-12-01T04:55:54;18.42;;;11.23;;
19026;SDS011;9646;52.034;5.554;2022-12-01T04:58:21;23.88;;;13.85;;
19026;SDS011;9646;52.034;5.554;2022-12-01T05:00:48;22.75;;;14.13;;
19026;SDS011;9646;52.034;5.554;2022-12-01T05:03:16;16.48;;;10.15;;
19026;SDS011;9646;52.034;5.554;2022-12-01T05:05:43;21.25;;;13.32;;
19026;SDS011;9646;52.034;5.554;2022-12-01T05:08:10;20.02;;;12.60;;
19026;SDS011;9646;52.034;5.554;2022-12-01T05:10:37;18.73;;;11.75;;
19026;SDS011;9646;52.034;5.554;2022-12-01T05:13:04;17.20;;;10.70;;
19026;SDS011;9646;52.034;5.554;2022-12-01T05:15:31;17.05;;;10.43;;
19026;SDS011;9646;52.034;5.554;2022-12-01T05:17:59;19.35;;;12.38;;
19026;SDS011;9646;52.034;5.554;2022-12-01T05:20:27;19.05;;;12.15;;
19026;SDS011;9646;52.034;5.554;2022-12-01T05:23:12;16.75;;;11.38;;
19026;SDS011;9646;52.034;5.554;2022-12-01T05:25:39;19.58;;;12.98;;
19026;SDS011;9646;52.034;5.554;2022-12-01T05:28:06;22.55;;;13.43;;
19026;SDS011;9646;52.034;5.554;2022-12-01T05:30:33;20.50;;;12.70;;
19026;SDS011;9646;52.034;5.554;2022-12-01T05:33:00;21.20;;;13.13;;
19026;SDS011;9646;52.034;5.554;2022-12-01T05:35:28;19.65;;;12.50;;
19026;SDS011;9646;52.034;5.554;2022-12-01T05:37:55;21.45;;;13.50;;
19026;SDS011;9646;52.034;5.554;2022-12-01T05:40:23;21.40;;;13.07;;
19026;SDS011;9646;52.034;5.554;2022-12-01T05:42:50;24.15;;;14.00;;
19026;SDS011;9646;52.034;5.554;2022-12-01T05:45:17;21.67;;;12.75;;
19026;SDS011;9646;52.034;5.554;2022-12-01T05:47:44;21.27;;;13.70;;
19026;SDS011;9646;52.034;5.554;2022-12-01T05:50:11;20.98;;;13.18;;
19026;SDS011;9646;52.034;5.554;2022-12-01T05:52:39;20.70;;;12.30;;
19026;SDS011;9646;52.034;5.554;2022-12-01T05:55:07;19.08;;;12.07;;
19026;SDS011;9646;52.034;5.554;2022-12-01T05:57:35;23.80;;;14.82;;
19026;SDS011;9646;52.034;5.554;2022-12-01T06:00:02;19.60;;;12.02;;
19026;SDS011;9646;52.034;5.554;2022-12-01T06:02:30;20.42;;;13.77;;
19026;SDS011;9646;52.034;5.554;2022-12-01T06:04:57;18.85;;;12.35;;
19026;SDS011;9646;52.034;5.554;2022-12-01T06:07:24;25.20;;;14.73;;
19026;SDS011;9646;52.034;5.554;2022-12-01T06:09:52;22.13;;;13.02;;
19026;SDS011;9646;52.034;5.554;2022-12-01T06:12:19;22.83;;;15.30;;
19026;SDS011;9646;52.034;5.554;2022-12-01T06:14:46;20.60;;;12.90;;
19026;SDS011;9646;52.034;5.554;2022-12-01T06:17:14;23.10;;;13.55;;
19026;SDS011;9646;52.034;5.554;2022-12-01T06:19:41;21.02;;;12.38;;
19026;SDS011;9646;52.034;5.554;2022-12-01T06:22:08;20.30;;;11.93;;
19026;SDS011;9646;52.034;5.554;2022-12-01T06:24:35;23.48;;;13.75;;
19026;SDS011;9646;52.034;5.554;2022-12-01T06:27:04;23.83;;;12.60;;
19026;SDS011;9646;52.034;5.554;2022-12-01T06:29:31;22.90;;;13.55;;
19026;SDS011;9646;52.034;5.554;2022-12-01T06:31:58;22.55;;;12.13;;
19026;SDS011;9646;52.034;5.554;2022-12-01T06:34:25;27.92;;;14.65;;
19026;SDS011;9646;52.034;5.554;2022-12-01T06:36:52;22.20;;;13.75;;
19026;SDS011;9646;52.034;5.554;2022-12-01T06:39:19;25.33;;;14.25;;
19026;SDS011;9646;52.034;5.554;2022-12-01T06:41:46;25.52;;;14.27;;
19026;SDS011;9646;52.034;5.554;2022-12-01T06:44:15;26.33;;;14.73;;
19026;SDS011;9646;52.034;5.554;2022-12-01T06:46:42;25.40;;;14.00;;
19026;SDS011;9646;52.034;5.554;2022-12-01T06:49:09;28.77;;;15.55;;
19026;SDS011;9646;52.034;5.554;2022-12-01T06:51:37;28.30;;;15.07;;
19026;SDS011;9646;52.034;5.554;2022-12-01T06:54:04;26.40;;;14.45;;
19026;SDS011;9646;52.034;5.554;2022-12-01T06:56:31;30.75;;;15.43;;
19026;SDS011;9646;52.034;5.554;2022-12-01T06:58:58;31.25;;;14.27;;
19026;SDS011;9646;52.034;5.554;2022-12-01T07:01:27;26.45;;;14.55;;
19026;SDS011;9646;52.034;5.554;2022-12-01T07:03:54;26.02;;;13.65;;
19026;SDS011;9646;52.034;5.554;2022-12-01T07:06:21;29.75;;;15.90;;
19026;SDS011;9646;52.034;5.554;2022-12-01T07:08:48;27.75;;;14.70;;
19026;SDS011;9646;52.034;5.554;2022-12-01T07:11:15;26.75;;;14.23;;
19026;SDS011;9646;52.034;5.554;2022-12-01T07:13:42;24.92;;;13.95;;
19026;SDS011;9646;52.034;5.554;2022-12-01T07:16:10;26.10;;;14.27;;
19026;SDS011;9646;52.034;5.554;2022-12-01T07:18:38;25.67;;;14.93;;
19026;SDS011;9646;52.034;5.554;2022-12-01T07:21:09;27.10;;;14.00;;
19026;SDS011;9646;52.034;5.554;2022-12-01T07:23:37;29.38;;;15.52;;
19026;SDS011;9646;52.034;5.554;2022-12-01T07:26:05;27.45;;;15.52;;
19026;SDS011;9646;52.034;5.554;2022-12-01T07:28:32;26.55;;;13.88;;
19026;SDS011;9646;52.034;5.554;2022-12-01T07:31:00;34.60;;;19.42;;
19026;SDS011;9646;52.034;5.554;2022-12-01T07:33:27;26.88;;;15.35;;
19026;SDS011;9646;52.034;5.554;2022-12-01T07:35:55;29.50;;;16.10;;
19026;SDS011;9646;52.034;5.554;2022-12-01T07:38:22;28.23;;;15.13;;
19026;SDS011;9646;52.034;5.554;2022-12-01T07:40:49;28.15;;;16.23;;
19026;SDS011;9646;52.034;5.554;2022-12-01T07:43:16;26.92;;;15.50;;
19026;SDS011;9646;52.034;5.554;2022-12-01T07:45:43;24.70;;;14.32;;
19026;SDS011;9646;52.034;5.554;2022-12-01T07:48:11;28.77;;;15.73;;
19026;SDS011;9646;52.034;5.554;2022-12-01T07:50:38;27.23;;;14.15;;
19026;SDS011;9646;52.034;5.554;2022-12-01T07:53:06;28.77;;;14.80;;
19026;SDS011;9646;52.034;5.554;2022-12-01T07:55:33;28.95;;;15.07;;
19026;SDS011;9646;52.034;5.554;2022-12-01T07:58:00;31.58;;;15.32;;
19026;SDS011;9646;52.034;5.554;2022-12-01T08:00:30;27.23;;;14.60;;
19026;SDS011;9646;52.034;5.554;2022-12-01T08:02:57;28.13;;;15.27;;
19026;SDS011;9646;52.034;5.554;2022-12-01T08:05:24;29.15;;;16.35;;
19026;SDS011;9646;52.034;5.554;2022-12-01T08:07:52;29.17;;;15.45;;
19026;SDS011;9646;52.034;5.554;2022-12-01T08:10:20;30.67;;;15.02;;
19026;SDS011;9646;52.034;5.554;2022-12-01T08:12:47;25.25;;;14.57;;
19026;SDS011;9646;52.034;5.554;2022-12-01T08:15:14;27.08;;;15.50;;
19026;SDS011;9646;52.034;5.554;2022-12-01T08:17:41;26.73;;;13.73;;
19026;SDS011;9646;52.034;5.554;2022-12-01T08:20:09;24.45;;;13.18;;
19026;SDS011;9646;52.034;5.554;2022-12-01T08:22:36;25.27;;;13.75;;
19026;SDS011;9646;52.034;5.554;2022-12-01T08:25:03;25.13;;;14.30;;
19026;SDS011;9646;52.034;5.554;2022-12-01T08:27:32;28.90;;;14.38;;
19026;SDS011;9646;52.034;5.554;2022-12-01T08:29:59;25.30;;;14.32;;
19026;SDS011;9646;52.034;5.554;2022-12-01T08:32:26;25.60;;;14.10;;
19026;SDS011;9646;52.034;5.554;2022-12-01T08:34:54;28.20;;;15.68;;
19026;SDS011;9646;52.034;5.554;2022-12-01T08:37:21;27.40;;;15.35;;
19026;SDS011;9646;52.034;5.554;2022-12-01T08:39:48;26.25;;;14.00;;
19026;SDS011;9646;52.034;5.554;2022-12-01T08:42:15;32.05;;;16.33;;
19026;SDS011;9646;52.034;5.554;2022-12-01T08:44:43;30.20;;;16.48;;
19026;SDS011;9646;52.034;5.554;2022-12-01T08:47:10;30.67;;;16.02;;
19026;SDS011;9646;52.034;5.554;2022-12-01T08:49:37;31.42;;;15.70;;
19026;SDS011;9646;52.034;5.554;2022-12-01T08:52:04;26.77;;;15.88;;
19026;SDS011;9646;52.034;5.554;2022-12-01T08:54:31;31.92;;;16.80;;
19026;SDS011;9646;52.034;5.554;2022-12-01T08:56:59;27.58;;;15.10;;
19026;SDS011;9646;52.034;5.554;2022-12-01T08:59:26;31.52;;;15.23;;
19026;SDS011;9646;52.034;5.554;2022-12-01T09:01:54;28.17;;;14.82;;
19026;SDS011;9646;52.034;5.554;2022-12-01T09:04:22;30.55;;;17.08;;
19026;SDS011;9646;52.034;5.554;2022-12-01T09:06:50;32.58;;;15.40;;
19026;SDS011;9646;52.034;5.554;2022-12-01T09:09:18;22.60;;;12.85;;
19026;SDS011;9646;52.034;5.554;2022-12-01T09:11:45;28.48;;;15.25;;
19026;SDS011;9646;52.034;5.554;2022-12-01T09:14:14;26.02;;;15.20;;
19026;SDS011;9646;52.034;5.554;2022-12-01T09:16:41;28.95;;;15.30;;
19026;SDS011;9646;52.034;5.554;2022-12-01T09:19:10;28.30;;;15.95;;
19026;SDS011;9646;52.034;5.554;2022-12-01T09:21:37;25.60;;;14.68;;
19026;SDS011;9646;52.034;5.554;2022-12-01T09:24:08;27.38;;;15.13;;
19026;SDS011;9646;52.034;5.554;2022-12-01T09:26:36;34.70;;;19.10;;
19026;SDS011;9646;52.034;5.554;2022-12-01T09:29:03;27.38;;;15.15;;
19026;SDS011;9646;52.034;5.554;2022-12-01T09:31:31;25.83;;;14.80;;
19026;SDS011;9646;52.034;5.554;2022-12-01T09:33:58;30.38;;;17.52;;
19026;SDS011;9646;52.034;5.554;2022-12-01T09:36:27;26.38;;;14.85;;
19026;SDS011;9646;52.034;5.554;2022-12-01T09:38:54;31.08;;;16.65;;
19026;SDS011;9646;52.034;5.554;2022-12-01T09:41:22;25.30;;;14.30;;
19026;SDS011;9646;52.034;5.554;2022-12-01T09:43:50;34.78;;;20.00;;
19026;SDS011;9646;52.034;5.554;2022-12-01T09:46:20;35.92;;;19.38;;
19026;SDS011;9646;52.034;5.554;2022-12-01T09:48:48;37.30;;;20.75;;
19026;SDS011;9646;52.034;5.554;2022-12-01T09:51:18;40.30;;;21.88;;
19026;SDS011;9646;52.034;5.554;2022-12-01T09:53:47;34.75;;;19.80;;
19026;SDS011;9646;52.034;5.554;2022-12-01T09:56:17;32.92;;;18.80;;
19026;SDS011;9646;52.034;5.554;2022-12-01T09:58:44;39.10;;;20.98;;
19026;SDS011;9646;52.034;5.554;2022-12-01T10:01:13;33.58;;;17.98;;
19026;SDS011;9646;52.034;5.554;2022-12-01T10:03:42;23.45;;;12.85;;
19026;SDS011;9646;52.034;5.554;2022-12-01T10:06:13;31.50;;;16.27;;
19026;SDS011;9646;52.034;5.554;2022-12-01T10:08:48;28.77;;;17.75;;
19026;SDS011;9646;52.034;5.554;2022-12-01T10:11:19;25.27;;;13.98;;
19026;SDS011;9646;52.034;5.554;2022-12-01T10:13:50;26.55;;;14.13;;
19026;SDS011;9646;52.034;5.554;2022-12-01T10:16:18;25.77;;;14.77;;
19026;SDS011;9646;52.034;5.554;2022-12-01T10:18:51;25.60;;;14.30;;
19026;SDS011;9646;52.034;5.554;2022-12-01T10:21:22;36.38;;;20.80;;
19026;SDS011;9646;52.034;5.554;2022-12-01T10:23:59;27.23;;;16.02;;
19026;SDS011;9646;52.034;5.554;2022-12-01T10:26:30;33.53;;;16.75;;
19026;SDS011;9646;52.034;5.554;2022-12-01T10:29:07;28.65;;;15.77;;
19026;SDS011;9646;52.034;5.554;2022-12-01T10:31:36;32.63;;;18.65;;
19026;SDS011;9646;52.034;5.554;2022-12-01T10:34:05;23.98;;;14.23;;
19026;SDS011;9646;52.034;5.554;2022-12-01T10:36:33;25.85;;;14.80;;
19026;SDS011;9646;52.034;5.554;2022-12-01T10:39:02;25.95;;;14.77;;
19026;SDS011;9646;52.034;5.554;2022-12-01T10:41:31;24.25;;;13.38;;
19026;SDS011;9646;52.034;5.554;2022-12-01T10:43:58;26.00;;;14.38;;
19026;SDS011;9646;52.034;5.554;2022-12-01T10:46:27;31.85;;;17.33;;
19026;SDS011;9646;52.034;5.554;2022-12-01T10:48:56;27.70;;;15.32;;
19026;SDS011;9646;52.034;5.554;2022-12-01T10:51:24;30.55;;;17.42;;
19026;SDS011;9646;52.034;5.554;2022-12-01T10:53:56;32.40;;;18.27;;
19026;SDS011;9646;52.034;5.554;2022-12-01T10:56:25;35.35;;;19.25;;
19026;SDS011;9646;52.034;5.554;2022-12-01T10:58:53;24.58;;;13.63;;
19026;SDS011;9646;52.034;5.554;2022-12-01T11:01:21;29.52;;;15.48;;
19026;SDS011;9646;52.034;5.554;2022-12-01T11:03:50;30.90;;;16.92;;
19026;SDS011;9646;52.034;5.554;2022-12-01T11:06:21;27.13;;;15.73;;
19026;SDS011;9646;52.034;5.554;2022-12-01T11:08:50;36.05;;;19.55;;
19026;SDS011;9646;52.034;5.554;2022-12-01T11:11:22;28.20;;;16.73;;
19026;SDS011;9646;52.034;5.554;2022-12-01T11:13:50;34.10;;;18.95;;
19026;SDS011;9646;52.034;5.554;2022-12-01T11:16:32;33.40;;;19.20;;
19026;SDS011;9646;52.034;5.554;2022-12-01T11:19:06;32.42;;;18.98;;
19026;SDS011;9646;52.034;5.554;2022-12-01T11:21:33;34.92;;;18.70;;
19026;SDS011;9646;52.034;5.554;2022-12-01T11:24:00;26.38;;;15.27;;
19026;SDS011;9646;52.034;5.554;2022-12-01T11:26:28;25.60;;;14.63;;
19026;SDS011;9646;52.034;5.554;2022-12-01T11:28:58;23.88;;;13.63;;
19026;SDS011;9646;52.034;5.554;2022-12-01T11:31:34;26.15;;;14.63;;
19026;SDS011;9646;52.034;5.554;2022-12-01T11:34:02;28.95;;;16.55;;
19026;SDS011;9646;52.034;5.554;2022-12-01T11:36:34;23.20;;;13.90;;
19026;SDS011;9646;52.034;5.554;2022-12-01T11:39:02;26.88;;;15.95;;
19026;SDS011;9646;52.034;5.554;2022-12-01T11:41:32;25.25;;;15.50;;
19026;SDS011;9646;52.034;5.554;2022-12-01T11:44:03;27.65;;;15.35;;
19026;SDS011;9646;52.034;5.554;2022-12-01T11:46:33;31.87;;;17.33;;
19026;SDS011;9646;52.034;5.554;2022-12-01T11:49:01;33.83;;;17.60;;
19026;SDS011;9646;52.034;5.554;2022-12-01T11:51:29;39.20;;;19.08;;
19026;SDS011;9646;52.034;5.554;2022-12-01T11:56:46;36.25;;;18.73;;
19026;SDS011;9646;52.034;5.554;2022-12-01T11:59:16;35.00;;;19.67;;
19026;SDS011;9646;52.034;5.554;2022-12-01T12:01:49;27.50;;;15.77;;
19026;SDS011;9646;52.034;5.554;2022-12-01T12:04:22;32.88;;;16.95;;
19026;SDS011;9646;52.034;5.554;2022-12-01T12:06:52;33.65;;;18.90;;
19026;SDS011;9646;52.034;5.554;2022-12-01T12:09:27;40.35;;;21.05;;
19026;SDS011;9646;52.034;5.554;2022-12-01T12:11:57;31.92;;;17.50;;
19026;SDS011;9646;52.034;5.554;2022-12-01T12:14:32;40.05;;;20.27;;
19026;SDS011;9646;52.034;5.554;2022-12-01T12:17:07;35.63;;;18.83;;
19026;SDS011;9646;52.034;5.554;2022-12-01T12:19:43;34.90;;;17.23;;
19026;SDS011;9646;52.034;5.554;2022-12-01T12:22:18;28.25;;;16.73;;
19026;SDS011;9646;52.034;5.554;2022-12-01T12:24:50;28.35;;;16.15;;
19026;SDS011;9646;52.034;5.554;2022-12-01T12:27:22;31.58;;;17.20;;
19026;SDS011;9646;52.034;5.554;2022-12-01T12:30:03;37.03;;;20.42;;
19026;SDS011;9646;52.034;5.554;2022-12-01T12:32:38;38.03;;;19.98;;
19026;SDS011;9646;52.034;5.554;2022-12-01T12:35:15;38.15;;;19.10;;
19026;SDS011;9646;52.034;5.554;2022-12-01T12:37:46;35.50;;;18.73;;
19026;SDS011;9646;52.034;5.554;2022-12-01T12:40:28;33.90;;;18.88;;
19026;SDS011;9646;52.034;5.554;2022-12-01T12:43:01;30.83;;;15.55;;
19026;SDS011;9646;52.034;5.554;2022-12-01T12:45:34;33.75;;;18.65;;
19026;SDS011;9646;52.034;5.554;2022-12-01T12:48:10;31.45;;;17.50;;
19026;SDS011;9646;52.034;5.554;2022-12-01T12:50:41;34.83;;;18.52;;
19026;SDS011;9646;52.034;5.554;2022-12-01T12:53:11;36.97;;;19.77;;
19026;SDS011;9646;52.034;5.554;2022-12-01T12:55:40;39.90;;;23.20;;
19026;SDS011;9646;52.034;5.554;2022-12-01T12:58:09;33.88;;;19.63;;
19026;SDS011;9646;52.034;5.554;2022-12-01T13:00:41;30.50;;;17.60;;
19026;SDS011;9646;52.034;5.554;2022-12-01T13:03:12;33.38;;;19.25;;
19026;SDS011;9646;52.034;5.554;2022-12-01T13:05:41;32.05;;;18.75;;
19026;SDS011;9646;52.034;5.554;2022-12-01T13:08:15;37.28;;;21.27;;
19026;SDS011;9646;52.034;5.554;2022-12-01T13:10:46;32.38;;;18.13;;
19026;SDS011;9646;52.034;5.554;2022-12-01T13:13:18;32.97;;;18.98;;
19026;SDS011;9646;52.034;5.554;2022-12-01T13:15:48;31.77;;;17.60;;
19026;SDS011;9646;52.034;5.554;2022-12-01T13:18:21;34.88;;;18.70;;
19026;SDS011;9646;52.034;5.554;2022-12-01T13:20:49;29.77;;;16.85;;
19026;SDS011;9646;52.034;5.554;2022-12-01T13:23:17;39.33;;;18.38;;
19026;SDS011;9646;52.034;5.554;2022-12-01T13:25:46;34.63;;;19.48;;
19026;SDS011;9646;52.034;5.554;2022-12-01T13:28:16;33.42;;;18.92;;
19026;SDS011;9646;52.034;5.554;2022-12-01T13:30:57;31.27;;;18.77;;
19026;SDS011;9646;52.034;5.554;2022-12-01T13:33:24;30.65;;;18.15;;
19026;SDS011;9646;52.034;5.554;2022-12-01T13:35:52;32.95;;;19.75;;
19026;SDS011;9646;52.034;5.554;2022-12-01T13:38:20;37.38;;;18.75;;
19026;SDS011;9646;52.034;5.554;2022-12-01T13:40:48;32.58;;;17.00;;
19026;SDS011;9646;52.034;5.554;2022-12-01T13:43:34;31.30;;;19.63;;
19026;SDS011;9646;52.034;5.554;2022-12-01T13:46:04;31.13;;;19.23;;
19026;SDS011;9646;52.034;5.554;2022-12-01T13:51:13;30.48;;;15.80;;
19026;SDS011;9646;52.034;5.554;2022-12-01T13:53:51;30.80;;;16.92;;
19026;SDS011;9646;52.034;5.554;2022-12-01T13:56:25;26.38;;;14.77;;
19026;SDS011;9646;52.034;5.554;2022-12-01T13:58:53;28.92;;;17.30;;
19026;SDS011;9646;52.034;5.554;2022-12-01T14:06:46;28.02;;;16.08;;
19026;SDS011;9646;52.034;5.554;2022-12-01T14:09:14;35.08;;;19.02;;
19026;SDS011;9646;52.034;5.554;2022-12-01T14:11:53;30.63;;;18.92;;
19026;SDS011;9646;52.034;5.554;2022-12-01T14:14:21;29.35;;;16.13;;
19026;SDS011;9646;52.034;5.554;2022-12-01T14:16:49;30.77;;;18.63;;
19026;SDS011;9646;52.034;5.554;2022-12-01T14:19:25;33.15;;;20.65;;
19026;SDS011;9646;52.034;5.554;2022-12-01T14:21:55;32.20;;;19.90;;
19026;SDS011;9646;52.034;5.554;2022-12-01T14:24:23;35.08;;;20.15;;
19026;SDS011;9646;52.034;5.554;2022-12-01T14:26:51;31.88;;;19.38;;
19026;SDS011;9646;52.034;5.554;2022-12-01T14:29:23;31.13;;;19.50;;
19026;SDS011;9646;52.034;5.554;2022-12-01T14:34:51;30.85;;;16.95;;
19026;SDS011;9646;52.034;5.554;2022-12-01T14:37:22;30.70;;;18.30;;
19026;SDS011;9646;52.034;5.554;2022-12-01T14:39:51;29.35;;;17.83;;
19026;SDS011;9646;52.034;5.554;2022-12-01T14:42:23;28.75;;;17.15;;
19026;SDS011;9646;52.034;5.554;2022-12-01T14:45:09;31.98;;;18.55;;
19026;SDS011;9646;52.034;5.554;2022-12-01T14:47:39;27.83;;;17.15;;
19026;SDS011;9646;52.034;5.554;2022-12-01T14:50:10;28.27;;;16.58;;
19026;SDS011;9646;52.034;5.554;2022-12-01T14:52:41;32.97;;;18.23;;
19026;SDS011;9646;52.034;5.554;2022-12-01T14:55:11;25.27;;;15.52;;
19026;SDS011;9646;52.034;5.554;2022-12-01T14:57:40;34.03;;;20.08;;
19026;SDS011;9646;52.034;5.554;2022-12-01T15:00:11;35.72;;;23.63;;
19026;SDS011;9646;52.034;5.554;2022-12-01T15:02:39;28.08;;;17.67;;
19026;SDS011;9646;52.034;5.554;2022-12-01T15:05:07;29.77;;;17.55;;